Terminal Aerodrome Forecast
Issued by NWS

Home | Current Version | Previous Version | Text Only | Print | Product List | Glossary On
Versions: 1 2 3 4 5 6 7 8 9 10 11 12 13 14 15 16 17 18 19
000
FTAK31 PAFA 282335
TAFASC
TAF
PASC 282335Z 2900/2924 21009KT P6SM SCT025 OVC070
      TEMPO 2900/2903 BKN025 OVC070
     FM290300 27013KT P6SM VCSH BKN025 OVC040
     FM290700 30009KT 6SM BR SCT005 OVC015=

USA.gov is the U.S. government's official web portal to all federal, state and local government web resources and services.